Terminal Aerodrome Forecast
Issued by NWS Charleston, WV

Current Version | Previous Version | Graphics & Text | Print | Product List | Glossary On
Versions: 1 2 3 4 5 6 7 8 9 10 11 12 13 14 15 16 17 18 19 20 21 22 23 24 25 26 27 28 29 30 31 32
000
FTUS41 KRLX 211100
TAFCRW
TAF
KCRW 211125Z 2112/2212 00000KT 2SM BR OVC001
     FM211300 00000KT 4SM BR BKN002
     FM211400 00000KT P6SM SCT003
     FM211700 00000KT P6SM SCT035
     FM212200 VRB03KT P6SM BKN035
     FM220300 12004KT 4SM BR BKN035
     FM220800 15004KT 1/2SM FG SCT250=

USA.gov is the U.S. government's official web portal to all federal, state and local government web resources and services.